sensor_id;sensor_type;location;lat;lon;timestamp;temperature;humidity
43808;DHT22;29438;50.664;10.098;2023-05-10T00:01:07;14.20;76.80
43808;DHT22;29438;50.664;10.098;2023-05-10T00:03:33;14.20;77.90
43808;DHT22;29438;50.664;10.098;2023-05-10T00:05:58;14.10;78.90
43808;DHT22;29438;50.664;10.098;2023-05-10T00:08:24;14.10;79.60
43808;DHT22;29438;50.664;10.098;2023-05-10T00:10:49;14.10;81.00
43808;DHT22;29438;50.664;10.098;2023-05-10T00:13:15;14.00;81.70
43808;DHT22;29438;50.664;10.098;2023-05-10T00:15:40;14.00;82.50
43808;DHT22;29438;50.664;10.098;2023-05-10T00:18:06;14.00;83.10
43808;DHT22;29438;50.664;10.098;2023-05-10T00:20:31;14.00;83.80
43808;DHT22;29438;50.664;10.098;2023-05-10T00:22:57;13.90;84.20
43808;DHT22;29438;50.664;10.098;2023-05-10T00:25:22;13.80;84.50
43808;DHT22;29438;50.664;10.098;2023-05-10T00:27:48;13.80;85.50
43808;DHT22;29438;50.664;10.098;2023-05-10T00:30:15;13.80;85.60
43808;DHT22;29438;50.664;10.098;2023-05-10T00:32:40;13.70;86.30
43808;DHT22;29438;50.664;10.098;2023-05-10T00:35:06;13.70;86.60
43808;DHT22;29438;50.664;10.098;2023-05-10T00:37:32;13.70;86.90
43808;DHT22;29438;50.664;10.098;2023-05-10T00:39:57;13.60;87.40
43808;DHT22;29438;50.664;10.098;2023-05-10T00:42:23;13.60;87.80
43808;DHT22;29438;50.664;10.098;2023-05-10T00:44:48;13.50;88.10
43808;DHT22;29438;50.664;10.098;2023-05-10T00:47:14;13.50;88.40
43808;DHT22;29438;50.664;10.098;2023-05-10T00:49:40;13.50;88.40
43808;DHT22;29438;50.664;10.098;2023-05-10T00:52:06;13.50;88.50
43808;DHT22;29438;50.664;10.098;2023-05-10T00:54:32;13.50;88.60
43808;DHT22;29438;50.664;10.098;2023-05-10T00:56:58;13.50;88.90
43808;DHT22;29438;50.664;10.098;2023-05-10T00:59:24;13.50;89.10
43808;DHT22;29438;50.664;10.098;2023-05-10T01:01:50;13.50;89.10
43808;DHT22;29438;50.664;10.098;2023-05-10T01:04:17;13.40;89.10
43808;DHT22;29438;50.664;10.098;2023-05-10T01:06:43;13.40;89.40
43808;DHT22;29438;50.664;10.098;2023-05-10T01:09:09;13.40;89.40
43808;DHT22;29438;50.664;10.098;2023-05-10T01:11:35;13.40;89.30
43808;DHT22;29438;50.664;10.098;2023-05-10T01:14:02;13.40;89.30
43808;DHT22;29438;50.664;10.098;2023-05-10T01:16:29;13.40;89.50
43808;DHT22;29438;50.664;10.098;2023-05-10T01:18:57;13.40;89.50
43808;DHT22;29438;50.664;10.098;2023-05-10T01:21:33;13.40;89.70
43808;DHT22;29438;50.664;10.098;2023-05-10T01:32:20;13.30;90.40
43808;DHT22;29438;50.664;10.098;2023-05-10T01:37:57;13.10;90.70
43808;DHT22;29438;50.664;10.098;2023-05-10T01:40:42;13.00;90.90
43808;DHT22;29438;50.664;10.098;2023-05-10T01:43:19;12.90;90.90
43808;DHT22;29438;50.664;10.098;2023-05-10T01:46:34;12.90;91.20
43808;DHT22;29438;50.664;10.098;2023-05-10T01:48:47;12.80;90.80
43808;DHT22;29438;50.664;10.098;2023-05-10T01:51:25;12.50;90.70
43808;DHT22;29438;50.664;10.098;2023-05-10T01:54:01;12.40;91.10
43808;DHT22;29438;50.664;10.098;2023-05-10T01:56:30;12.30;91.30
43808;DHT22;29438;50.664;10.098;2023-05-10T01:58:57;12.20;91.30
43808;DHT22;29438;50.664;10.098;2023-05-10T02:01:24;12.20;91.50
43808;DHT22;29438;50.664;10.098;2023-05-10T02:03:51;12.20;91.60
43808;DHT22;29438;50.664;10.098;2023-05-10T02:06:19;12.00;91.70
43808;DHT22;29438;50.664;10.098;2023-05-10T02:08:46;12.10;91.90
43808;DHT22;29438;50.664;10.098;2023-05-10T02:11:14;12.00;92.00
43808;DHT22;29438;50.664;10.098;2023-05-10T02:13:39;12.00;92.20
43808;DHT22;29438;50.664;10.098;2023-05-10T02:16:06;12.00;92.30
43808;DHT22;29438;50.664;10.098;2023-05-10T02:18:34;12.00;92.30
43808;DHT22;29438;50.664;10.098;2023-05-10T02:21:00;12.10;92.40
43808;DHT22;29438;50.664;10.098;2023-05-10T02:23:27;12.00;92.30
43808;DHT22;29438;50.664;10.098;2023-05-10T02:25:54;11.90;92.20
43808;DHT22;29438;50.664;10.098;2023-05-10T02:28:21;11.90;92.20
43808;DHT22;29438;50.664;10.098;2023-05-10T02:30:47;11.80;92.30
43808;DHT22;29438;50.664;10.098;2023-05-10T02:33:14;11.80;92.40
43808;DHT22;29438;50.664;10.098;2023-05-10T02:35:40;11.80;92.40
43808;DHT22;29438;50.664;10.098;2023-05-10T02:38:06;11.80;92.40
43808;DHT22;29438;50.664;10.098;2023-05-10T02:40:33;11.80;92.50
43808;DHT22;29438;50.664;10.098;2023-05-10T02:43:01;11.90;92.50
43808;DHT22;29438;50.664;10.098;2023-05-10T02:45:31;11.80;92.60
43808;DHT22;29438;50.664;10.098;2023-05-10T02:47:57;11.90;92.60
43808;DHT22;29438;50.664;10.098;2023-05-10T02:50:26;11.90;92.70
43808;DHT22;29438;50.664;10.098;2023-05-10T02:52:56;11.90;92.60
43808;DHT22;29438;50.664;10.098;2023-05-10T02:55:26;11.80;92.60
43808;DHT22;29438;50.664;10.098;2023-05-10T02:57:58;11.90;92.70
43808;DHT22;29438;50.664;10.098;2023-05-10T03:00:25;11.80;92.70
43808;DHT22;29438;50.664;10.098;2023-05-10T03:02:50;11.90;92.70
43808;DHT22;29438;50.664;10.098;2023-05-10T03:05:16;11.80;92.70
43808;DHT22;29438;50.664;10.098;2023-05-10T03:07:41;11.80;92.70
43808;DHT22;29438;50.664;10.098;2023-05-10T03:10:07;11.80;92.70
43808;DHT22;29438;50.664;10.098;2023-05-10T03:18:15;11.80;92.60
43808;DHT22;29438;50.664;10.098;2023-05-10T03:20:47;11.80;92.60
43808;DHT22;29438;50.664;10.098;2023-05-10T03:23:30;11.90;93.10
43808;DHT22;29438;50.664;10.098;2023-05-10T03:25:59;11.90;93.20
43808;DHT22;29438;50.664;10.098;2023-05-10T03:28:26;11.90;93.20
43808;DHT22;29438;50.664;10.098;2023-05-10T03:30:53;12.00;93.30
43808;DHT22;29438;50.664;10.098;2023-05-10T03:33:19;12.10;93.20
43808;DHT22;29438;50.664;10.098;2023-05-10T03:35:45;12.20;93.10
43808;DHT22;29438;50.664;10.098;2023-05-10T03:38:14;12.20;93.10
43808;DHT22;29438;50.664;10.098;2023-05-10T03:40:39;12.10;93.00
43808;DHT22;29438;50.664;10.098;2023-05-10T03:43:05;12.10;93.00
43808;DHT22;29438;50.664;10.098;2023-05-10T03:45:30;12.00;92.70
43808;DHT22;29438;50.664;10.098;2023-05-10T03:47:57;12.00;92.60
43808;DHT22;29438;50.664;10.098;2023-05-10T03:50:23;11.90;92.60
43808;DHT22;29438;50.664;10.098;2023-05-10T03:52:48;11.80;92.50
43808;DHT22;29438;50.664;10.098;2023-05-10T03:55:14;11.80;92.60
43808;DHT22;29438;50.664;10.098;2023-05-10T03:57:39;11.70;92.30
43808;DHT22;29438;50.664;10.098;2023-05-10T04:00:05;11.70;92.30
43808;DHT22;29438;50.664;10.098;2023-05-10T04:02:31;11.60;92.20
43808;DHT22;29438;50.664;10.098;2023-05-10T04:04:56;11.60;92.20
43808;DHT22;29438;50.664;10.098;2023-05-10T04:07:22;11.60;92.30
43808;DHT22;29438;50.664;10.098;2023-05-10T04:09:48;11.60;92.20
43808;DHT22;29438;50.664;10.098;2023-05-10T04:12:13;11.60;92.20
43808;DHT22;29438;50.664;10.098;2023-05-10T04:14:39;11.60;92.30
43808;DHT22;29438;50.664;10.098;2023-05-10T04:17:04;11.60;92.10
43808;DHT22;29438;50.664;10.098;2023-05-10T04:19:31;11.60;92.20
43808;DHT22;29438;50.664;10.098;2023-05-10T04:21:57;11.70;92.20
43808;DHT22;29438;50.664;10.098;2023-05-10T04:24:23;11.70;92.20
43808;DHT22;29438;50.664;10.098;2023-05-10T04:26:48;11.70;92.10
43808;DHT22;29438;50.664;10.098;2023-05-10T04:29:14;11.70;92.10
43808;DHT22;29438;50.664;10.098;2023-05-10T04:31:39;11.70;92.00
43808;DHT22;29438;50.664;10.098;2023-05-10T04:34:05;11.70;92.00
43808;DHT22;29438;50.664;10.098;2023-05-10T04:36:30;11.70;91.90
43808;DHT22;29438;50.664;10.098;2023-05-10T04:38:58;11.80;91.90
43808;DHT22;29438;50.664;10.098;2023-05-10T04:41:23;11.80;91.80
43808;DHT22;29438;50.664;10.098;2023-05-10T04:43:50;11.80;91.90
43808;DHT22;29438;50.664;10.098;2023-05-10T04:46:15;11.80;91.90
43808;DHT22;29438;50.664;10.098;2023-05-10T04:48:41;11.80;91.80
43808;DHT22;29438;50.664;10.098;2023-05-10T04:51:06;11.80;91.70
43808;DHT22;29438;50.664;10.098;2023-05-10T04:53:32;11.80;91.50
43808;DHT22;29438;50.664;10.098;2023-05-10T04:55:58;11.80;91.60
43808;DHT22;29438;50.664;10.098;2023-05-10T04:58:23;11.80;91.40
43808;DHT22;29438;50.664;10.098;2023-05-10T05:00:49;11.70;91.10
43808;DHT22;29438;50.664;10.098;2023-05-10T05:03:14;11.70;91.50
43808;DHT22;29438;50.664;10.098;2023-05-10T05:05:40;11.70;91.20
43808;DHT22;29438;50.664;10.098;2023-05-10T05:08:05;11.80;91.40
43808;DHT22;29438;50.664;10.098;2023-05-10T05:10:31;11.80;91.00
43808;DHT22;29438;50.664;10.098;2023-05-10T05:12:57;11.90;91.10
43808;DHT22;29438;50.664;10.098;2023-05-10T05:15:22;12.00;91.00
43808;DHT22;29438;50.664;10.098;2023-05-10T05:17:48;12.00;91.00
43808;DHT22;29438;50.664;10.098;2023-05-10T05:20:14;12.10;90.90
43808;DHT22;29438;50.664;10.098;2023-05-10T05:22:39;12.20;91.10
43808;DHT22;29438;50.664;10.098;2023-05-10T05:25:05;12.20;90.80
43808;DHT22;29438;50.664;10.098;2023-05-10T05:27:32;12.20;91.00
43808;DHT22;29438;50.664;10.098;2023-05-10T05:29:57;12.20;91.10
43808;DHT22;29438;50.664;10.098;2023-05-10T05:32:23;12.00;90.90
43808;DHT22;29438;50.664;10.098;2023-05-10T05:34:49;12.00;91.10
43808;DHT22;29438;50.664;10.098;2023-05-10T05:37:17;12.00;91.20
43808;DHT22;29438;50.664;10.098;2023-05-10T05:39:43;12.00;91.10
43808;DHT22;29438;50.664;10.098;2023-05-10T05:42:09;12.10;91.20
43808;DHT22;29438;50.664;10.098;2023-05-10T05:44:35;12.00;91.20
43808;DHT22;29438;50.664;10.098;2023-05-10T05:47:01;12.00;91.20
43808;DHT22;29438;50.664;10.098;2023-05-10T05:49:27;11.90;91.10
43808;DHT22;29438;50.664;10.098;2023-05-10T05:51:52;11.90;91.20
43808;DHT22;29438;50.664;10.098;2023-05-10T05:54:18;12.00;91.40
43808;DHT22;29438;50.664;10.098;2023-05-10T05:56:43;12.10;91.20
43808;DHT22;29438;50.664;10.098;2023-05-10T05:59:10;12.30;91.20
43808;DHT22;29438;50.664;10.098;2023-05-10T06:01:35;12.40;90.70
43808;DHT22;29438;50.664;10.098;2023-05-10T06:04:01;12.50;90.30
43808;DHT22;29438;50.664;10.098;2023-05-10T06:06:26;12.60;90.20
43808;DHT22;29438;50.664;10.098;2023-05-10T06:08:53;12.60;89.90
43808;DHT22;29438;50.664;10.098;2023-05-10T06:11:18;12.60;89.30
43808;DHT22;29438;50.664;10.098;2023-05-10T06:13:44;12.60;89.40
43808;DHT22;29438;50.664;10.098;2023-05-10T06:16:09;12.70;89.30
43808;DHT22;29438;50.664;10.098;2023-05-10T06:18:35;12.70;89.10
43808;DHT22;29438;50.664;10.098;2023-05-10T06:21:01;12.80;88.70
43808;DHT22;29438;50.664;10.098;2023-05-10T06:23:26;13.10;88.70
43808;DHT22;29438;50.664;10.098;2023-05-10T06:29:18;14.00;85.30
43808;DHT22;29438;50.664;10.098;2023-05-10T06:31:43;14.30;84.20
43808;DHT22;29438;50.664;10.098;2023-05-10T06:34:09;14.30;84.60
43808;DHT22;29438;50.664;10.098;2023-05-10T06:36:35;14.50;84.50
43808;DHT22;29438;50.664;10.098;2023-05-10T06:39:01;14.50;82.70
43808;DHT22;29438;50.664;10.098;2023-05-10T06:41:26;14.40;82.40
43808;DHT22;29438;50.664;10.098;2023-05-10T06:43:52;14.50;82.20
43808;DHT22;29438;50.664;10.098;2023-05-10T06:46:17;14.70;82.70
43808;DHT22;29438;50.664;10.098;2023-05-10T06:48:43;14.80;81.00
43808;DHT22;29438;50.664;10.098;2023-05-10T06:51:08;14.90;82.90
43808;DHT22;29438;50.664;10.098;2023-05-10T06:53:34;15.00;81.60
43808;DHT22;29438;50.664;10.098;2023-05-10T06:55:59;14.80;81.50
43808;DHT22;29438;50.664;10.098;2023-05-10T06:58:25;14.80;82.00
43808;DHT22;29438;50.664;10.098;2023-05-10T07:00:51;14.80;82.00
43808;DHT22;29438;50.664;10.098;2023-05-10T07:03:16;14.70;82.40
43808;DHT22;29438;50.664;10.098;2023-05-10T07:05:42;14.50;82.00
43808;DHT22;29438;50.664;10.098;2023-05-10T07:08:07;14.40;82.80
43808;DHT22;29438;50.664;10.098;2023-05-10T07:10:33;14.20;82.80
43808;DHT22;29438;50.664;10.098;2023-05-10T07:12:59;14.40;83.30
43808;DHT22;29438;50.664;10.098;2023-05-10T07:15:25;15.00;82.60
43808;DHT22;29438;50.664;10.098;2023-05-10T07:17:51;15.50;81.70
43808;DHT22;29438;50.664;10.098;2023-05-10T07:20:17;17.30;77.60
43808;DHT22;29438;50.664;10.098;2023-05-10T07:22:43;19.00;70.20
43808;DHT22;29438;50.664;10.098;2023-05-10T07:25:08;18.60;69.60
43808;DHT22;29438;50.664;10.098;2023-05-10T07:27:34;17.50;72.70
43808;DHT22;29438;50.664;10.098;2023-05-10T07:30:00;18.40;68.80
43808;DHT22;29438;50.664;10.098;2023-05-10T07:32:25;17.70;71.10
43808;DHT22;29438;50.664;10.098;2023-05-10T07:34:51;17.20;71.90
43808;DHT22;29438;50.664;10.098;2023-05-10T07:37:17;17.00;74.00
43808;DHT22;29438;50.664;10.098;2023-05-10T07:39:42;17.20;72.00
43808;DHT22;29438;50.664;10.098;2023-05-10T07:42:08;17.90;70.70
43808;DHT22;29438;50.664;10.098;2023-05-10T07:44:33;17.40;70.10
43808;DHT22;29438;50.664;10.098;2023-05-10T07:46:59;16.50;72.60
43808;DHT22;29438;50.664;10.098;2023-05-10T07:49:25;15.80;74.80
43808;DHT22;29438;50.664;10.098;2023-05-10T07:51:50;15.70;75.90
43808;DHT22;29438;50.664;10.098;2023-05-10T07:54:16;15.70;77.20
43808;DHT22;29438;50.664;10.098;2023-05-10T07:56:42;15.60;76.90
43808;DHT22;29438;50.664;10.098;2023-05-10T07:59:15;15.90;75.10
43808;DHT22;29438;50.664;10.098;2023-05-10T08:01:41;16.10;75.20
43808;DHT22;29438;50.664;10.098;2023-05-10T08:04:07;16.20;75.50
43808;DHT22;29438;50.664;10.098;2023-05-10T08:06:32;16.20;74.80
43808;DHT22;29438;50.664;10.098;2023-05-10T08:08:58;16.40;75.60
43808;DHT22;29438;50.664;10.098;2023-05-10T08:11:23;16.40;75.20
43808;DHT22;29438;50.664;10.098;2023-05-10T08:13:50;16.20;74.40
43808;DHT22;29438;50.664;10.098;2023-05-10T08:16:16;16.30;75.60
43808;DHT22;29438;50.664;10.098;2023-05-10T08:18:43;16.60;75.40
43808;DHT22;29438;50.664;10.098;2023-05-10T08:21:10;16.50;75.40
43808;DHT22;29438;50.664;10.098;2023-05-10T08:23:36;16.70;74.40
43808;DHT22;29438;50.664;10.098;2023-05-10T08:26:02;16.20;74.40
43808;DHT22;29438;50.664;10.098;2023-05-10T08:28:31;16.20;74.80
43808;DHT22;29438;50.664;10.098;2023-05-10T08:30:56;16.30;74.70
43808;DHT22;29438;50.664;10.098;2023-05-10T08:33:22;16.00;73.50
43808;DHT22;29438;50.664;10.098;2023-05-10T08:35:48;16.10;76.50
43808;DHT22;29438;50.664;10.098;2023-05-10T08:38:13;15.90;75.40
43808;DHT22;29438;50.664;10.098;2023-05-10T08:40:41;15.80;77.20
43808;DHT22;29438;50.664;10.098;2023-05-10T08:43:12;16.20;76.40
43808;DHT22;29438;50.664;10.098;2023-05-10T08:45:40;16.50;74.10
43808;DHT22;29438;50.664;10.098;2023-05-10T08:48:07;16.70;73.90
43808;DHT22;29438;50.664;10.098;2023-05-10T08:50:36;16.60;74.40
43808;DHT22;29438;50.664;10.098;2023-05-10T08:53:05;16.20;74.80
43808;DHT22;29438;50.664;10.098;2023-05-10T08:55:32;16.20;75.20
43808;DHT22;29438;50.664;10.098;2023-05-10T08:57:59;16.20;74.40
43808;DHT22;29438;50.664;10.098;2023-05-10T09:00:25;16.30;75.10
43808;DHT22;29438;50.664;10.098;2023-05-10T09:02:51;16.30;74.70
43808;DHT22;29438;50.664;10.098;2023-05-10T09:05:17;16.20;74.30
43808;DHT22;29438;50.664;10.098;2023-05-10T09:07:43;16.80;74.30
43808;DHT22;29438;50.664;10.098;2023-05-10T09:10:09;18.10;71.00
43808;DHT22;29438;50.664;10.098;2023-05-10T09:12:35;18.80;66.50
43808;DHT22;29438;50.664;10.098;2023-05-10T09:15:01;19.00;66.40
43808;DHT22;29438;50.664;10.098;2023-05-10T09:17:28;19.20;66.70
43808;DHT22;29438;50.664;10.098;2023-05-10T09:20:00;20.50;64.10
43808;DHT22;29438;50.664;10.098;2023-05-10T09:22:26;20.70;61.50
43808;DHT22;29438;50.664;10.098;2023-05-10T09:25:11;21.50;60.00
43808;DHT22;29438;50.664;10.098;2023-05-10T09:27:40;21.80;55.80
43808;DHT22;29438;50.664;10.098;2023-05-10T09:30:07;21.50;56.90
43808;DHT22;29438;50.664;10.098;2023-05-10T09:32:41;21.70;57.60
43808;DHT22;29438;50.664;10.098;2023-05-10T09:35:12;21.30;56.70
43808;DHT22;29438;50.664;10.098;2023-05-10T09:37:44;20.70;60.50
43808;DHT22;29438;50.664;10.098;2023-05-10T09:40:16;20.30;59.70
43808;DHT22;29438;50.664;10.098;2023-05-10T09:42:43;19.80;62.90
43808;DHT22;29438;50.664;10.098;2023-05-10T09:45:15;19.80;66.00
43808;DHT22;29438;50.664;10.098;2023-05-10T09:47:41;20.70;61.00
43808;DHT22;29438;50.664;10.098;2023-05-10T09:50:06;21.10;61.30
43808;DHT22;29438;50.664;10.098;2023-05-10T09:55:24;19.70;62.00
43808;DHT22;29438;50.664;10.098;2023-05-10T09:57:59;19.70;63.80
43808;DHT22;29438;50.664;10.098;2023-05-10T10:00:26;19.00;64.80
43808;DHT22;29438;50.664;10.098;2023-05-10T10:02:57;18.50;66.30
43808;DHT22;29438;50.664;10.098;2023-05-10T10:05:28;18.80;66.00
43808;DHT22;29438;50.664;10.098;2023-05-10T10:07:56;18.80;66.50
43808;DHT22;29438;50.664;10.098;2023-05-10T10:10:21;19.00;65.10
43808;DHT22;29438;50.664;10.098;2023-05-10T10:12:47;18.30;65.40
43808;DHT22;29438;50.664;10.098;2023-05-10T10:15:13;17.70;68.50
43808;DHT22;29438;50.664;10.098;2023-05-10T10:17:39;17.90;69.00
43808;DHT22;29438;50.664;10.098;2023-05-10T10:20:06;18.40;68.20
43808;DHT22;29438;50.664;10.098;2023-05-10T10:22:32;18.70;66.80
43808;DHT22;29438;50.664;10.098;2023-05-10T10:24:58;18.40;66.90
43808;DHT22;29438;50.664;10.098;2023-05-10T10:27:25;17.90;67.70
43808;DHT22;29438;50.664;10.098;2023-05-10T10:30:42;17.20;69.10
43808;DHT22;29438;50.664;10.098;2023-05-10T10:35:47;16.90;70.60
43808;DHT22;29438;50.664;10.098;2023-05-10T10:38:13;17.20;70.80
43808;DHT22;29438;50.664;10.098;2023-05-10T10:40:39;16.80;71.30
43808;DHT22;29438;50.664;10.098;2023-05-10T10:46:18;16.70;73.50
43808;DHT22;29438;50.664;10.098;2023-05-10T10:49:31;16.60;73.30
43808;DHT22;29438;50.664;10.098;2023-05-10T10:51:38;16.80;74.10
43808;DHT22;29438;50.664;10.098;2023-05-10T10:54:10;17.20;73.50
43808;DHT22;29438;50.664;10.098;2023-05-10T10:56:36;17.20;71.70
43808;DHT22;29438;50.664;10.098;2023-05-10T10:59:01;17.40;70.50
43808;DHT22;29438;50.664;10.098;2023-05-10T11:01:32;17.40;69.90
43808;DHT22;29438;50.664;10.098;2023-05-10T11:06:34;17.80;72.70
43808;DHT22;29438;50.664;10.098;2023-05-10T11:09:11;18.30;69.70
43808;DHT22;29438;50.664;10.098;2023-05-10T11:11:53;18.80;67.10
43808;DHT22;29438;50.664;10.098;2023-05-10T11:14:21;19.00;65.90
43808;DHT22;29438;50.664;10.098;2023-05-10T11:16:47;19.20;65.30
43808;DHT22;29438;50.664;10.098;2023-05-10T11:19:14;18.70;64.50
43808;DHT22;29438;50.664;10.098;2023-05-10T11:21:48;18.70;66.40
43808;DHT22;29438;50.664;10.098;2023-05-10T11:24:15;18.60;66.00
43808;DHT22;29438;50.664;10.098;2023-05-10T11:26:41;19.20;65.60
43808;DHT22;29438;50.664;10.098;2023-05-10T11:29:07;19.60;64.00
43808;DHT22;29438;50.664;10.098;2023-05-10T11:31:33;19.80;63.90
43808;DHT22;29438;50.664;10.098;2023-05-10T11:33:59;19.90;64.50
43808;DHT22;29438;50.664;10.098;2023-05-10T11:36:27;19.80;66.00
43808;DHT22;29438;50.664;10.098;2023-05-10T11:38:54;19.70;64.50
43808;DHT22;29438;50.664;10.098;2023-05-10T11:41:20;19.80;63.60
43808;DHT22;29438;50.664;10.098;2023-05-10T11:43:53;19.30;63.40
43808;DHT22;29438;50.664;10.098;2023-05-10T11:46:20;19.10;65.90
43808;DHT22;29438;50.664;10.098;2023-05-10T11:48:49;18.80;66.10
43808;DHT22;29438;50.664;10.098;2023-05-10T11:51:20;18.80;65.80
43808;DHT22;29438;50.664;10.098;2023-05-10T11:53:45;19.00;65.60
43808;DHT22;29438;50.664;10.098;2023-05-10T11:56:11;19.40;65.60
43808;DHT22;29438;50.664;10.098;2023-05-10T11:58:38;19.30;65.40
43808;DHT22;29438;50.664;10.098;2023-05-10T12:01:06;19.10;64.40
43808;DHT22;29438;50.664;10.098;2023-05-10T12:03:32;19.20;63.20
43808;DHT22;29438;50.664;10.098;2023-05-10T12:05:58;19.50;61.60
43808;DHT22;29438;50.664;10.098;2023-05-10T12:08:26;19.40;62.40
43808;DHT22;29438;50.664;10.098;2023-05-10T12:10:53;19.40;62.00
43808;DHT22;29438;50.664;10.098;2023-05-10T12:13:20;19.60;64.00
43808;DHT22;29438;50.664;10.098;2023-05-10T12:15:46;19.70;62.70
43808;DHT22;29438;50.664;10.098;2023-05-10T12:18:13;19.80;62.30
43808;DHT22;29438;50.664;10.098;2023-05-10T12:20:39;20.00;63.50
43808;DHT22;29438;50.664;10.098;2023-05-10T12:23:05;19.20;64.60
43808;DHT22;29438;50.664;10.098;2023-05-10T12:25:32;19.20;64.80
43808;DHT22;29438;50.664;10.098;2023-05-10T12:27:59;19.20;63.90
43808;DHT22;29438;50.664;10.098;2023-05-10T12:30:30;19.10;64.00
43808;DHT22;29438;50.664;10.098;2023-05-10T12:33:09;18.90;64.80
43808;DHT22;29438;50.664;10.098;2023-05-10T12:35:53;19.30;66.20
43808;DHT22;29438;50.664;10.098;2023-05-10T12:40:59;19.30;66.10
43808;DHT22;29438;50.664;10.098;2023-05-10T12:43:24;19.10;66.20
43808;DHT22;29438;50.664;10.098;2023-05-10T12:45:50;19.10;65.70
43808;DHT22;29438;50.664;10.098;2023-05-10T12:48:15;18.60;66.40
43808;DHT22;29438;50.664;10.098;2023-05-10T12:50:41;18.70;67.70
43808;DHT22;29438;50.664;10.098;2023-05-10T12:53:06;19.20;66.90
43808;DHT22;29438;50.664;10.098;2023-05-10T12:55:32;19.60;63.50
43808;DHT22;29438;50.664;10.098;2023-05-10T12:57:57;19.10;62.50
43808;DHT22;29438;50.664;10.098;2023-05-10T13:00:23;19.00;64.90
43808;DHT22;29438;50.664;10.098;2023-05-10T13:02:49;18.70;64.50
43808;DHT22;29438;50.664;10.098;2023-05-10T13:05:14;18.60;66.20
43808;DHT22;29438;50.664;10.098;2023-05-10T13:07:40;17.90;68.80
43808;DHT22;29438;50.664;10.098;2023-05-10T13:10:06;17.50;71.20
43808;DHT22;29438;50.664;10.098;2023-05-10T13:12:32;17.20;75.30
43808;DHT22;29438;50.664;10.098;2023-05-10T13:14:58;16.60;76.70
43808;DHT22;29438;50.664;10.098;2023-05-10T13:17:25;16.60;78.90
43808;DHT22;29438;50.664;10.098;2023-05-10T13:19:51;16.20;80.40
43808;DHT22;29438;50.664;10.098;2023-05-10T13:22:16;16.20;80.20
43808;DHT22;29438;50.664;10.098;2023-05-10T13:24:42;15.90;80.80
43808;DHT22;29438;50.664;10.098;2023-05-10T13:27:08;15.80;81.10
43808;DHT22;29438;50.664;10.098;2023-05-10T13:29:33;15.80;81.00
43808;DHT22;29438;50.664;10.098;2023-05-10T13:31:59;15.70;80.90
43808;DHT22;29438;50.664;10.098;2023-05-10T13:34:24;15.50;82.20
43808;DHT22;29438;50.664;10.098;2023-05-10T13:36:50;15.40;82.10
43808;DHT22;29438;50.664;10.098;2023-05-10T13:39:16;15.40;82.50
43808;DHT22;29438;50.664;10.098;2023-05-10T13:41:42;15.60;82.60
43808;DHT22;29438;50.664;10.098;2023-05-10T13:44:07;15.60;82.50
43808;DHT22;29438;50.664;10.098;2023-05-10T13:46:33;15.90;82.50
43808;DHT22;29438;50.664;10.098;2023-05-10T13:48:58;15.70;81.60
43808;DHT22;29438;50.664;10.098;2023-05-10T13:51:24;15.80;81.20
43808;DHT22;29438;50.664;10.098;2023-05-10T13:53:49;15.90;81.00
43808;DHT22;29438;50.664;10.098;2023-05-10T13:56:15;16.00;79.60
43808;DHT22;29438;50.664;10.098;2023-05-10T13:58:41;16.20;78.30
43808;DHT22;29438;50.664;10.098;2023-05-10T14:01:06;16.20;79.20
43808;DHT22;29438;50.664;10.098;2023-05-10T14:03:32;16.50;76.50
43808;DHT22;29438;50.664;10.098;2023-05-10T14:05:58;16.60;78.10
43808;DHT22;29438;50.664;10.098;2023-05-10T14:08:23;16.80;77.90
43808;DHT22;29438;50.664;10.098;2023-05-10T14:10:49;16.80;77.40
43808;DHT22;29438;50.664;10.098;2023-05-10T14:13:15;16.80;78.50
43808;DHT22;29438;50.664;10.098;2023-05-10T14:15:41;16.80;79.50
43808;DHT22;29438;50.664;10.098;2023-05-10T14:18:07;16.80;78.50
43808;DHT22;29438;50.664;10.098;2023-05-10T14:20:32;16.60;78.80
43808;DHT22;29438;50.664;10.098;2023-05-10T14:22:59;16.70;77.30
43808;DHT22;29438;50.664;10.098;2023-05-10T14:25:25;16.60;77.90
43808;DHT22;29438;50.664;10.098;2023-05-10T14:27:50;16.70;76.50
43808;DHT22;29438;50.664;10.098;2023-05-10T14:30:16;16.80;78.30
43808;DHT22;29438;50.664;10.098;2023-05-10T14:32:42;16.80;75.90
43808;DHT22;29438;50.664;10.098;2023-05-10T14:35:08;16.60;77.90
43808;DHT22;29438;50.664;10.098;2023-05-10T14:37:34;16.40;77.90
43808;DHT22;29438;50.664;10.098;2023-05-10T14:39:59;16.70;77.80
43808;DHT22;29438;50.664;10.098;2023-05-10T14:42:25;16.60;77.70
43808;DHT22;29438;50.664;10.098;2023-05-10T14:44:51;16.80;76.90
43808;DHT22;29438;50.664;10.098;2023-05-10T14:47:16;16.90;75.30
43808;DHT22;29438;50.664;10.098;2023-05-10T14:49:42;16.80;75.30
43808;DHT22;29438;50.664;10.098;2023-05-10T14:52:07;16.90;75.40
43808;DHT22;29438;50.664;10.098;2023-05-10T14:54:33;16.70;75.10
43808;DHT22;29438;50.664;10.098;2023-05-10T14:56:59;16.60;74.60
43808;DHT22;29438;50.664;10.098;2023-05-10T14:59:25;16.50;74.40
43808;DHT22;29438;50.664;10.098;2023-05-10T15:01:51;16.50;76.80
43808;DHT22;29438;50.664;10.098;2023-05-10T15:04:16;16.50;76.10
43808;DHT22;29438;50.664;10.098;2023-05-10T15:06:42;16.40;76.20
43808;DHT22;29438;50.664;10.098;2023-05-10T15:09:07;16.20;78.10
43808;DHT22;29438;50.664;10.098;2023-05-10T15:11:34;16.20;77.70
43808;DHT22;29438;50.664;10.098;2023-05-10T15:13:59;16.20;78.50
43808;DHT22;29438;50.664;10.098;2023-05-10T15:16:25;16.10;77.40
43808;DHT22;29438;50.664;10.098;2023-05-10T15:18:50;16.00;77.80
43808;DHT22;29438;50.664;10.098;2023-05-10T15:21:16;15.80;78.90
43808;DHT22;29438;50.664;10.098;2023-05-10T15:23:42;15.90;80.40
43808;DHT22;29438;50.664;10.098;2023-05-10T15:26:07;16.00;80.30
43808;DHT22;29438;50.664;10.098;2023-05-10T15:28:33;15.70;80.30
43808;DHT22;29438;50.664;10.098;2023-05-10T15:30:58;15.50;79.70
43808;DHT22;29438;50.664;10.098;2023-05-10T15:33:24;15.50;81.40
43808;DHT22;29438;50.664;10.098;2023-05-10T15:35:50;15.60;81.60
43808;DHT22;29438;50.664;10.098;2023-05-10T15:38:15;15.50;80.70
43808;DHT22;29438;50.664;10.098;2023-05-10T15:40:41;15.20;80.50
43808;DHT22;29438;50.664;10.098;2023-05-10T15:43:06;15.00;81.40
43808;DHT22;29438;50.664;10.098;2023-05-10T15:45:32;15.00;80.50
43808;DHT22;29438;50.664;10.098;2023-05-10T15:47:58;15.10;80.50